Time;durP1;ratioP1;P1;durP2;ratioP2;P2;SDS_P1;SDS_P2;PMS_P1;PMS_P2;Temp;Humidity;BMP_temperature;BMP_pressure;BME280_temperature;BME280_humidity;BME280_pressure;Samples;Min_cycle;Max_cycle;Signal;HPM_P1;HPM_P2
2021/11/08 00:02:50;;;;;;;9.43;3.97;;;;;;;10.26;61.37;98177.28;8351251;28;20232;-68
2021/11/08 00:06:56;;;;;;;10.50;3.93;;;;;;;10.30;60.93;98169.38;8352201;28;20232;-68
2021/11/08 00:10:59;;;;;;;11.77;3.90;;;;;;;10.23;61.06;98167.88;8352397;28;20232;-68
2021/11/08 00:15:03;;;;;;;10.93;3.87;;;;;;;10.26;61.16;98169.50;8352096;28;20255;-69
2021/11/08 00:19:21;;;;;;;13.57;4.07;;;;;;;10.32;60.76;98172.75;8351703;28;20235;-67
2021/11/08 00:23:26;;;;;;;10.93;4.03;;;;;;;10.17;60.84;98171.56;8351455;28;20246;-67
2021/11/08 00:27:29;;;;;;;12.93;4.23;;;;;;;10.21;60.98;98174.03;8351464;28;20235;-67
2021/11/08 00:31:32;;;;;;;10.70;3.93;;;;;;;10.04;61.06;98170.34;8351919;28;20232;-67
2021/11/08 00:35:37;;;;;;;13.47;4.57;;;;;;;10.16;60.56;98172.44;8351557;28;20243;-69
2021/11/08 00:39:40;;;;;;;16.17;4.80;;;;;;;10.10;60.51;98177.03;8351396;28;20239;-67
2021/11/08 00:43:43;;;;;;;10.83;3.90;;;;;;;10.16;60.74;98181.97;8351140;28;20243;-67
2021/11/08 00:47:46;;;;;;;10.53;3.63;;;;;;;10.07;60.59;98190.09;8350626;28;20244;-67
2021/11/08 00:51:50;;;;;;;9.27;3.70;;;;;;;10.11;60.65;98194.22;8350830;28;20234;-67
2021/11/08 00:55:54;;;;;;;9.87;4.13;;;;;;;10.17;60.44;98201.78;8350474;28;20251;-67
2021/11/08 00:59:57;;;;;;;10.27;3.57;;;;;;;10.11;60.16;98199.41;8350740;28;20228;-67
2021/11/08 01:04:00;;;;;;;10.80;3.60;;;;;;;10.06;60.70;98206.53;8350432;28;20330;-67
2021/11/08 01:08:06;;;;;;;10.77;4.30;;;;;;;10.02;60.31;98207.56;8350371;28;20273;-67
2021/11/08 01:12:10;;;;;;;11.33;3.90;;;;;;;10.04;60.28;98211.75;8350485;28;20238;-67
2021/11/08 01:16:13;;;;;;;15.37;4.50;;;;;;;10.11;60.09;98222.69;8350282;28;20240;-67
2021/11/08 01:20:16;;;;;;;12.63;4.33;;;;;;;10.00;59.99;98224.88;8350129;28;20236;-67
2021/11/08 01:24:21;;;;;;;12.67;4.47;;;;;;;9.97;60.26;98228.41;8350033;28;20236;-67
2021/11/08 01:28:31;;;;;;;13.57;4.20;;;;;;;9.98;59.98;98228.34;8348947;28;20232;-67
2021/11/08 01:32:34;;;;;;;10.17;3.90;;;;;;;9.97;59.78;98231.00;8342534;28;20231;-67
2021/11/08 01:36:38;;;;;;;10.10;3.87;;;;;;;9.93;59.29;98232.00;8349756;28;20246;-67
2021/11/08 01:40:43;;;;;;;10.23;3.97;;;;;;;9.89;59.50;98239.03;8349452;28;20231;-67
2021/11/08 01:44:46;;;;;;;10.60;3.93;;;;;;;9.84;59.82;98238.34;8350891;28;20243;-67
2021/11/08 01:48:50;;;;;;;12.37;4.70;;;;;;;9.84;59.70;98237.53;8349456;28;20232;-67
2021/11/08 01:52:53;;;;;;;12.30;4.57;;;;;;;9.82;59.50;98241.91;8349452;28;20262;-67
2021/11/08 01:56:58;;;;;;;12.63;4.50;;;;;;;9.79;59.59;98243.72;8349174;28;20406;-67
2021/11/08 02:01:02;;;;;;;12.73;4.27;;;;;;;9.84;59.86;98247.88;8349368;28;20589;-67
2021/11/08 02:05:06;;;;;;;13.53;4.77;;;;;;;9.83;59.83;98254.81;8348940;28;20236;-67
2021/11/08 02:09:09;;;;;;;9.73;4.20;;;;;;;9.81;59.74;98258.34;8349050;28;20239;-67
2021/11/08 02:13:13;;;;;;;12.97;4.53;;;;;;;9.73;59.74;98263.81;8348393;28;20247;-67
2021/11/08 02:17:16;;;;;;;15.53;4.53;;;;;;;9.77;60.52;98263.63;8348505;28;20232;-67
2021/11/08 02:21:21;;;;;;;13.40;4.70;;;;;;;9.71;60.40;98261.25;8348347;28;20251;-67
2021/11/08 02:25:25;;;;;;;15.70;4.77;;;;;;;9.66;60.01;98270.09;8348156;28;20232;-67
2021/11/08 02:29:28;;;;;;;15.33;4.77;;;;;;;9.64;59.66;98269.31;8347620;28;20224;-67
2021/11/08 02:33:35;;;;;;;13.43;4.50;;;;;;;9.70;59.83;98269.06;8347838;28;20288;-67
2021/11/08 02:37:39;;;;;;;14.80;4.60;;;;;;;9.64;59.73;98264.13;8347953;28;20243;-67
2021/11/08 02:41:42;;;;;;;11.30;4.57;;;;;;;9.51;59.20;98272.31;8347631;28;20519;-67
2021/11/08 02:45:45;;;;;;;13.93;4.17;;;;;;;9.53;59.20;98275.69;8347546;28;20243;-67
2021/11/08 02:49:50;;;;;;;11.13;4.00;;;;;;;9.53;59.47;98277.44;8347724;28;20232;-67
2021/11/08 02:54:00;;;;;;;14.20;4.67;;;;;;;9.62;59.62;98292.63;8347509;28;20240;-67
2021/11/08 02:58:03;;;;;;;11.97;4.53;;;;;;;9.57;59.66;98285.00;8347922;28;20244;-67
2021/11/08 03:02:08;;;;;;;15.10;5.00;;;;;;;9.61;60.31;98290.09;8347499;28;20242;-67
2021/11/08 03:06:16;;;;;;;13.30;4.57;;;;;;;9.63;60.36;98290.88;8347567;28;20308;-67
2021/11/08 03:10:23;;;;;;;13.90;4.97;;;;;;;9.56;60.48;98285.09;8347714;28;20239;-67
2021/11/08 03:14:29;;;;;;;13.23;4.67;;;;;;;9.61;60.89;98288.34;8347171;28;20224;-67
2021/11/08 03:18:37;;;;;;;15.70;5.17;;;;;;;9.68;60.55;98288.97;8347513;28;20228;-67
2021/11/08 03:22:46;;;;;;;13.87;5.33;;;;;;;9.50;61.10;98285.28;8347152;28;20239;-67
2021/11/08 03:26:53;;;;;;;15.43;4.63;;;;;;;9.63;61.11;98291.72;8347225;28;20408;-67
2021/11/08 03:30:57;;;;;;;12.43;4.67;;;;;;;9.65;60.83;98291.66;8347359;28;20232;-67
2021/11/08 03:35:02;;;;;;;15.23;5.37;;;;;;;9.50;61.47;98300.78;8346994;28;20232;-67
2021/11/08 03:39:06;;;;;;;13.40;4.50;;;;;;;9.70;60.76;98285.44;8346941;28;20232;-67
2021/11/08 03:43:13;;;;;;;14.37;4.87;;;;;;;9.68;61.00;98296.75;8347239;28;20546;-67
2021/11/08 03:47:16;;;;;;;17.47;5.00;;;;;;;9.53;61.41;98301.53;8347265;28;20427;-67
2021/11/08 03:51:19;;;;;;;14.77;5.13;;;;;;;9.75;61.04;98308.56;8348270;28;20566;-67
2021/11/08 03:55:23;;;;;;;16.10;4.97;;;;;;;9.67;60.78;98311.41;8352471;28;20235;-67
2021/11/08 03:59:27;;;;;;;13.60;5.27;;;;;;;9.68;61.27;98307.06;8352187;28;20231;-67
2021/11/08 04:03:35;;;;;;;11.57;4.50;;;;;;;9.62;61.38;98313.31;8352211;28;20236;-67
2021/11/08 04:07:38;;;;;;;15.47;4.80;;;;;;;9.74;60.72;98315.44;8352062;28;20558;-67
2021/11/08 04:11:42;;;;;;;14.43;4.80;;;;;;;9.70;60.51;98319.03;8352174;28;20564;-67
2021/11/08 04:15:49;;;;;;;15.40;5.60;;;;;;;9.47;61.46;98322.44;8352237;28;20244;-67
2021/11/08 04:19:52;;;;;;;14.23;5.53;;;;;;;9.67;61.07;98316.59;8352179;28;20238;-67
2021/11/08 04:23:55;;;;;;;19.97;5.17;;;;;;;9.70;60.83;98318.22;8351754;28;20232;-67
2021/11/08 04:27:59;;;;;;;18.17;5.37;;;;;;;9.74;60.92;98322.38;8351809;28;20401;-67
2021/11/08 04:32:03;;;;;;;14.77;4.83;;;;;;;9.66;60.69;98316.63;8351688;28;20553;-67
2021/11/08 04:36:27;;;;;;;15.77;5.20;;;;;;;9.72;61.21;98329.34;8351442;28;20254;-67
2021/11/08 04:40:33;;;;;;;14.07;5.40;;;;;;;9.68;61.14;98323.44;8350947;28;20535;-67
2021/11/08 04:44:59;;;;;;;17.07;5.17;;;;;;;9.70;60.73;98324.22;8351289;28;20289;-67
2021/11/08 04:49:11;;;;;;;14.33;5.17;;;;;;;9.67;60.67;98326.06;8351076;28;20570;-67
2021/11/08 04:53:24;;;;;;;16.47;5.23;;;;;;;9.69;61.18;98314.78;8350965;28;20247;-67
2021/11/08 05:27:55;;;;;;;15.70;5.23;;;;;;;9.73;61.07;98359.50;8340801;28;20456;-67
2021/11/08 05:31:58;;;;;;;16.60;5.60;;;;;;;9.76;60.87;98354.19;8349580;28;20239;-66
2021/11/08 05:36:01;;;;;;;15.13;5.50;;;;;;;9.76;60.98;98369.72;8349640;28;20243;-67
2021/11/08 05:40:09;;;;;;;14.90;5.67;;;;;;;9.79;60.80;98369.63;8349507;28;20232;-67
2021/11/08 05:44:12;;;;;;;17.27;5.87;;;;;;;9.78;60.83;98366.16;8349313;28;20402;-67
2021/11/08 05:48:15;;;;;;;15.07;5.13;;;;;;;9.82;60.59;98377.25;8349028;28;20267;-67
2021/11/08 05:52:18;;;;;;;21.63;5.73;;;;;;;10.04;60.10;98368.75;8348812;28;20232;-67
2021/11/08 05:56:27;;;;;;;18.67;5.90;;;;;;;9.97;60.08;98374.13;8348726;28;20267;-67
2021/11/08 06:53:02;;;;;;;19.50;6.37;;;;;;;9.70;61.30;98419.06;8347973;28;20236;-67
2021/11/08 06:57:11;;;;;;;17.57;6.37;;;;;;;9.87;60.81;98427.09;8348177;28;20522;-67
2021/11/08 07:01:14;;;;;;;17.50;6.03;;;;;;;9.96;60.63;98431.97;8347755;28;20231;-67
2021/11/08 07:05:18;;;;;;;20.83;6.20;;;;;;;9.92;60.53;98448.50;8346947;28;20235;-67
2021/11/08 07:09:22;;;;;;;16.60;5.63;;;;;;;9.96;60.53;98457.00;8346933;28;20234;-67
2021/11/08 07:13:24;;;;;;;17.97;6.27;;;;;;;9.95;60.54;98468.22;8346979;28;20235;-67
2021/11/08 07:17:27;;;;;;;16.50;5.67;;;;;;;10.02;60.45;98466.31;8346300;28;20232;-66
2021/11/08 07:21:36;;;;;;;19.23;5.93;;;;;;;10.11;60.43;98469.41;8347054;28;20224;-67
2021/11/08 07:25:39;;;;;;;15.93;6.03;;;;;;;10.20;60.02;98468.22;8347528;28;20244;-67
2021/11/08 07:29:42;;;;;;;18.77;6.23;;;;;;;10.27;59.64;98477.47;8353646;28;20243;-67
2021/11/08 07:33:45;;;;;;;19.27;6.13;;;;;;;10.30;59.37;98480.00;8353751;28;20240;-67
2021/11/08 07:37:49;;;;;;;17.27;6.17;;;;;;;10.36;59.72;98484.13;8353509;28;20538;-67
2021/11/08 07:41:52;;;;;;;22.73;7.27;;;;;;;10.27;59.66;98490.44;8353105;28;20228;-67
2021/11/08 07:45:55;;;;;;;14.50;5.83;;;;;;;10.39;59.49;98494.34;8352557;28;20236;-67
2021/11/08 07:49:58;;;;;;;17.73;6.07;;;;;;;10.48;59.26;98498.38;8352835;28;20407;-68
2021/11/08 07:54:02;;;;;;;18.67;6.77;;;;;;;10.39;59.11;98499.53;8353041;28;20246;-67
2021/11/08 07:58:05;;;;;;;15.60;6.47;;;;;;;10.62;59.01;98498.72;8353034;28;20557;-68
2021/11/08 08:02:09;;;;;;;18.00;5.93;;;;;;;10.50;59.20;98496.56;8352961;28;20228;-67
2021/11/08 08:06:12;;;;;;;18.30;6.17;;;;;;;10.62;58.69;98505.66;8352262;28;20235;-67
2021/11/08 08:10:16;;;;;;;17.80;5.97;;;;;;;10.74;58.86;98510.41;8352442;28;20556;-68
2021/11/08 08:14:19;;;;;;;17.83;6.30;;;;;;;10.51;59.24;98504.28;8352597;28;20243;-67
2021/11/08 08:18:22;;;;;;;22.40;6.37;;;;;;;10.79;58.71;98492.09;8352502;28;20232;-68
2021/11/08 08:22:27;;;;;;;18.10;6.07;;;;;;;10.82;58.66;98497.16;8352483;28;20228;-68
2021/11/08 08:26:33;;;;;;;16.53;6.60;;;;;;;10.89;58.26;98496.88;8350908;28;20231;-67
2021/11/08 08:30:36;;;;;;;16.13;6.27;;;;;;;10.99;58.27;98494.78;8351827;28;20232;-67
2021/11/08 08:34:39;;;;;;;18.13;6.47;;;;;;;11.09;58.40;98495.28;8352142;28;20544;-67
2021/11/08 08:38:42;;;;;;;29.40;10.43;;;;;;;13.19;66.39;98490.75;8350645;28;20235;-63
2021/11/08 08:42:46;;;;;;;21.07;7.20;;;;;;;13.58;58.17;98499.41;8351273;28;20232;-62
2021/11/08 08:46:49;;;;;;;15.90;5.60;;;;;;;14.01;53.12;98499.91;8350803;28;20236;-62
2021/11/08 08:50:56;;;;;;;18.23;6.03;;;;;;;14.06;52.06;98500.53;8350822;28;20326;-68
2021/11/08 08:54:59;;;;;;;19.00;6.20;;;;;;;12.72;53.12;98501.59;8350901;28;20240;-67
2021/11/08 08:59:04;;;;;;;20.97;6.30;;;;;;;12.44;54.54;98505.41;8349681;28;20240;-68
2021/11/08 09:03:08;;;;;;;21.40;6.60;;;;;;;12.16;54.97;98510.09;8350626;28;20232;-68
2021/11/08 09:07:15;;;;;;;21.20;7.10;;;;;;;11.79;55.48;98509.81;8350359;28;20236;-68
2021/11/08 09:11:19;;;;;;;23.07;6.40;;;;;;;11.84;55.81;98520.88;8350412;28;20346;-67
2021/11/08 09:15:27;;;;;;;17.30;5.80;;;;;;;11.96;55.19;98516.13;8350361;28;20302;-69
2021/11/08 09:19:30;;;;;;;21.43;6.43;;;;;;;11.88;55.61;98532.81;8318558;28;20515;-67
2021/11/08 09:23:34;;;;;;;18.20;6.10;;;;;;;11.71;55.95;98530.06;8317283;28;20578;-67
2021/11/08 09:27:37;;;;;;;15.00;5.60;;;;;;;11.99;56.32;98526.34;8317479;28;20247;-67
2021/11/08 09:31:41;;;;;;;22.30;6.83;;;;;;;11.91;55.46;98540.47;8346496;28;20232;-67
2021/11/08 09:35:48;;;;;;;15.57;6.10;;;;;;;12.00;56.00;98541.88;8349621;28;20232;-67
2021/11/08 09:39:52;;;;;;;19.17;6.37;;;;;;;11.90;55.83;98541.41;8349695;28;20228;-67
2021/11/08 09:43:56;;;;;;;16.47;6.07;;;;;;;11.89;56.43;98551.81;8349671;28;20251;-67
2021/11/08 09:48:01;;;;;;;17.17;5.60;;;;;;;11.90;56.10;98546.59;8348753;28;20243;-67
2021/11/08 09:52:05;;;;;;;15.27;5.50;;;;;;;12.01;55.98;98545.31;8349259;28;20232;-68
2021/11/08 09:56:10;;;;;;;19.17;6.43;;;;;;;11.89;56.58;98546.63;8349350;28;20516;-68
2021/11/08 10:00:24;;;;;;;21.07;6.17;;;;;;;11.90;56.01;98546.59;8349081;28;20232;-67
2021/11/08 10:04:29;;;;;;;20.13;6.67;;;;;;;11.51;56.64;98541.19;8348018;28;20439;-68
2021/11/08 10:08:38;;;;;;;19.13;6.67;;;;;;;11.78;56.83;98549.63;8348682;28;20239;-67
2021/11/08 10:12:42;;;;;;;23.85;7.30;;;;;;;12.40;54.65;98541.97;8346482;28;20533;-65
2021/11/08 10:16:46;;;;;;;18.63;6.77;;;;;;;12.05;55.55;98549.47;8348208;28;20274;-65
2021/11/08 10:20:52;;;;;;;20.30;6.50;;;;;;;12.05;56.13;98552.06;8348586;28;20263;-65
2021/11/08 10:24:58;;;;;;;16.97;5.90;;;;;;;12.10;56.01;98550.97;8347921;28;20236;-64
2021/11/08 10:29:03;;;;;;;21.63;6.17;;;;;;;12.36;55.35;98541.25;8348351;28;20236;-64
2021/11/08 10:33:13;;;;;;;18.83;7.20;;;;;;;12.12;55.52;98553.50;8348029;28;20228;-64
2021/11/08 10:37:24;;;;;;;18.90;6.40;;;;;;;12.03;55.87;98554.75;8348010;28;20236;-65
2021/11/08 10:41:30;;;;;;;16.87;6.23;;;;;;;11.98;55.68;98561.03;8339744;28;20224;-65
2021/11/08 10:45:33;;;;;;;19.17;6.50;;;;;;;11.99;56.19;98562.69;8347986;28;20474;-65
2021/11/08 10:49:42;;;;;;;18.43;6.30;;;;;;;12.08;55.52;98557.97;8347627;28;20232;-65
2021/11/08 10:53:53;;;;;;;23.17;6.70;;;;;;;12.04;55.31;98571.16;8347553;28;20235;-65
2021/11/08 10:58:08;;;;;;;19.53;7.00;;;;;;;12.11;55.59;98562.22;8347716;28;20426;-65
2021/11/08 11:02:13;;;;;;;21.10;6.47;;;;;;;12.01;54.21;98560.88;8355965;28;20230;-64
2021/11/08 11:06:16;;;;;;;17.37;6.17;;;;;;;12.35;54.63;98557.72;8358324;28;20255;-67
2021/11/08 11:10:22;;;;;;;14.67;5.70;;;;;;;12.57;54.13;98562.88;8358397;28;20236;-67
2021/11/08 11:14:33;;;;;;;19.63;6.23;;;;;;;12.70;53.55;98558.84;8358844;28;20548;-68
2021/11/08 11:18:38;;;;;;;18.53;6.27;;;;;;;12.74;52.53;98556.94;8358561;28;20246;-67
2021/11/08 11:22:45;;;;;;;17.27;6.07;;;;;;;12.73;52.57;98551.81;8357997;28;20236;-67
2021/11/08 11:26:52;;;;;;;13.93;5.10;;;;;;;12.88;51.14;98549.38;8357941;28;20236;-67
2021/11/08 11:30:56;;;;;;;18.30;5.97;;;;;;;12.85;52.34;98548.66;8358223;28;20234;-68
2021/11/08 11:34:59;;;;;;;14.07;5.47;;;;;;;12.82;52.55;98554.00;8357760;28;20235;-68
2021/11/08 11:39:07;;;;;;;14.80;5.67;;;;;;;12.69;52.44;98545.91;8357871;28;20294;-69
2021/11/08 11:43:14;;;;;;;14.80;5.50;;;;;;;12.76;51.82;98546.50;8357595;28;20408;-68
2021/11/08 11:47:18;;;;;;;15.63;5.37;;;;;;;12.76;51.30;98542.13;8357644;28;20429;-68
2021/11/08 11:51:25;;;;;;;19.07;5.70;;;;;;;12.81;50.10;98541.91;8357618;28;20228;-67
2021/11/08 11:55:28;;;;;;;13.83;4.00;;;;;;;12.85;48.85;98543.47;8357196;28;20239;-67
2021/11/08 11:59:32;;;;;;;16.80;4.37;;;;;;;12.89;48.07;98539.84;8357690;28;20239;-68
2021/11/08 12:03:37;;;;;;;10.47;3.30;;;;;;;13.13;47.46;98544.84;8357441;28;20241;-64
2021/11/08 12:07:40;;;;;;;11.13;3.37;;;;;;;13.12;46.66;98538.78;8357353;28;20267;-64
2021/11/08 12:11:45;;;;;;;11.50;3.60;;;;;;;13.22;46.54;98547.00;8355309;28;20535;-64
2021/11/08 12:15:49;;;;;;;12.90;3.50;;;;;;;13.04;45.33;98544.34;8352404;28;20232;-64
2021/11/08 12:20:04;;;;;;;14.37;4.13;;;;;;;13.01;46.53;98535.84;8352015;28;20250;-64
2021/11/08 12:24:16;;;;;;;10.60;3.47;;;;;;;13.06;46.31;98533.84;8352130;28;20232;-64
2021/11/08 12:28:22;;;;;;;11.17;3.57;;;;;;;13.03;46.20;98529.66;8351596;28;20236;-64
2021/11/08 12:32:27;;;;;;;8.00;2.77;;;;;;;13.03;45.40;98523.59;8352158;28;20428;-64
2021/11/08 12:36:31;;;;;;;8.57;2.73;;;;;;;12.87;44.01;98528.63;8351507;28;20319;-65
2021/11/08 12:40:35;;;;;;;8.63;2.50;;;;;;;12.68;44.77;98521.69;8351550;28;20224;-65
2021/11/08 12:44:40;;;;;;;9.63;2.80;;;;;;;12.84;44.73;98521.00;8351135;28;20240;-65
2021/11/08 12:48:45;;;;;;;10.73;3.03;;;;;;;12.68;45.61;98516.47;8351322;28;20243;-64
2021/11/08 12:52:48;;;;;;;10.60;3.20;;;;;;;12.61;46.34;98516.81;8350589;28;20428;-64
2021/11/08 12:56:52;;;;;;;11.47;2.80;;;;;;;12.63;46.27;98512.41;8351668;28;20232;-64
2021/11/08 13:00:55;;;;;;;9.67;2.90;;;;;;;12.75;46.33;98505.81;8351528;28;20228;-64
2021/11/08 13:05:02;;;;;;;10.83;3.20;;;;;;;12.48;45.89;98511.31;8350297;28;20236;-64
2021/11/08 13:09:11;;;;;;;11.10;3.20;;;;;;;12.49;46.38;98521.63;8351026;28;20423;-64
2021/11/08 13:13:20;;;;;;;8.43;2.97;;;;;;;12.40;47.50;98509.03;8350464;28;20319;-68
2021/11/08 13:17:23;;;;;;;10.30;3.43;;;;;;;12.46;48.30;98521.75;8350122;28;20543;-67
2021/11/08 13:21:27;;;;;;;10.93;3.43;;;;;;;12.35;48.30;98525.72;8341604;28;20448;-67
2021/11/08 13:25:32;;;;;;;9.63;3.43;;;;;;;12.46;48.41;98523.50;8348421;28;20549;-68
2021/11/08 13:29:35;;;;;;;11.13;3.53;;;;;;;12.43;48.67;98521.91;8349987;28;20228;-67
2021/11/08 13:33:41;;;;;;;12.30;3.70;;;;;;;12.36;49.42;98517.03;8349775;28;20232;-67
2021/11/08 13:37:45;;;;;;;14.47;3.97;;;;;;;12.43;49.67;98516.72;8349551;28;20232;-68
2021/11/08 13:41:48;;;;;;;11.23;3.97;;;;;;;12.33;49.49;98518.00;8349604;28;20246;-68
2021/11/08 13:45:54;;;;;;;14.37;4.10;;;;;;;12.24;49.77;98523.56;8349186;28;20232;-68
2021/11/08 13:49:57;;;;;;;12.67;3.83;;;;;;;12.35;49.79;98523.13;8349079;28;20436;-68
2021/11/08 13:54:04;;;;;;;10.70;3.97;;;;;;;12.27;50.23;98537.28;8348853;28;20243;-68
2021/11/08 13:58:07;;;;;;;10.00;3.60;;;;;;;12.24;49.85;98529.63;8316572;28;20299;-68
2021/11/08 14:02:12;;;;;;;14.90;4.13;;;;;;;12.12;49.36;98525.78;8316190;28;20414;-68
2021/11/08 14:06:20;;;;;;;14.67;4.47;;;;;;;12.04;49.85;98533.03;8315929;28;20240;-68
2021/11/08 14:10:24;;;;;;;12.33;4.20;;;;;;;12.01;50.13;98532.31;8316022;28;20367;-64
2021/11/08 14:14:29;;;;;;;14.13;4.53;;;;;;;11.99;50.03;98526.34;8347768;28;20230;-64
2021/11/08 14:18:33;;;;;;;10.07;4.10;;;;;;;12.17;50.07;98532.56;8348056;28;20232;-64
2021/11/08 14:22:38;;;;;;;16.20;4.83;;;;;;;12.20;50.16;98532.41;8348372;28;20235;-64
2021/11/08 14:26:45;;;;;;;15.43;4.90;;;;;;;12.30;50.71;98531.13;8348192;28;20232;-64
2021/11/08 14:30:47;;;;;;;19.27;7.57;;;;;;;12.29;50.43;98535.47;8348069;28;20228;-64
2021/11/08 14:34:56;;;;;;;21.83;9.83;;;;;;;12.13;49.42;98540.47;8347529;28;20239;-64
2021/11/08 14:39:03;;;;;;;15.10;4.63;;;;;;;12.40;48.12;98540.22;8346461;28;20232;-65
2021/11/08 14:43:15;;;;;;;15.93;4.20;;;;;;;12.73;47.40;98539.66;8347710;28;20236;-64
2021/11/08 14:47:20;;;;;;;10.00;3.53;;;;;;;12.74;47.60;98541.34;8347598;28;20414;-64
2021/11/08 14:51:24;;;;;;;8.50;3.27;;;;;;;12.66;47.27;98546.03;8347681;28;20235;-65
2021/11/08 14:55:28;;;;;;;11.93;3.50;;;;;;;12.47;47.28;98540.78;8346755;28;20228;-64
2021/11/08 14:59:35;;;;;;;12.67;3.83;;;;;;;12.43;47.37;98539.22;8347478;28;20238;-64
2021/11/08 15:03:38;;;;;;;7.97;3.57;;;;;;;12.35;47.09;98549.09;8347648;28;20236;-65
2021/11/08 15:07:44;;;;;;;13.33;3.60;;;;;;;12.36;48.14;98554.25;8347199;28;20258;-64
2021/11/08 15:11:47;;;;;;;11.90;3.73;;;;;;;12.30;48.24;98544.94;8347411;28;20238;-67
2021/11/08 15:15:53;;;;;;;10.93;3.73;;;;;;;12.17;48.37;98551.56;8346500;28;20212;-67
2021/11/08 15:20:46;;;;;;;12.20;3.73;;;;;;;12.16;47.49;98543.84;8344095;28;20228;-67
2021/11/08 15:24:49;;;;;;;13.50;4.80;;;;;;;12.72;47.04;98553.56;8341089;28;20408;-67
2021/11/08 15:28:53;;;;;;;13.30;3.90;;;;;;;12.27;48.02;98549.44;8346656;28;20242;-68
2021/11/08 15:33:05;;;;;;;15.00;4.60;;;;;;;12.23;48.17;98551.31;8347095;28;20238;-67
2021/11/08 15:37:12;;;;;;;14.40;4.30;;;;;;;12.16;48.64;98570.63;8346062;28;20543;-68
2021/11/08 15:41:16;;;;;;;11.87;4.00;;;;;;;12.16;48.84;98567.19;8346049;28;20228;-68
